Flight Track Log - Related Links

Times and Time Zones

All times are in EST time to prevent confusion due to time zone crossing. See the N702LK flight status page for this flight to view local times or setup timezone preferences in your user account.

Time Position Orientation Groundspeed Altitude Reporting Facility
EST Latitude Longitude Course Direction KTS MPH feet Rate Location/Type
Sun 10:17:14 AM 9.9922 -84.2134 68° East 140 161 2,800  Level FlightAware ADS-B (MRPV / SYQ)
Sun 10:17:29 AM 9.9958 -84.2041 68° East 153 176 3,400 2,800 Climbing FlightAware ADS-B (MRPV / SYQ)
Sun 10:17:44 AM 9.9999 -84.1934 69° East 173 199 4,200 3,290 Climbing FlightAware ADS-B (MRPV / SYQ)
Sun 10:18:00 AM 10.0045 -84.1811 68° East 181 208 5,100 3,400 Climbing FlightAware ADS-B (MRPV / SYQ)
Sun 10:18:14 AM 10.0091 -84.1693 69° East 188 216 5,900 3,474 Climbing FlightAware ADS-B (MRPV / SYQ)
Sun 10:18:19 AM 10.0103 -84.1651 77° East 189 217 6,200 3,000 Climbing FlightAware ADS-B (MRPV / SYQ)
Sun 10:18:24 AM 10.0108 -84.1612 86° East 192 221 6,400 2,400 Climbing FlightAware ADS-B (MRPV / SYQ)
Sun 10:18:29 AM 10.0104 -84.1562 101° East 196 226 6,600 3,000 Climbing FlightAware ADS-B (MRPV / SYQ)
Sun 10:18:34 AM 10.0090 -84.1523 114° Southeast 201 231 6,900 3,000 Climbing FlightAware ADS-B (MRPV / SYQ)
Sun 10:18:39 AM 10.0062 -84.1478 129° Southeast 208 239 7,100 3,000 Climbing FlightAware ADS-B (MRPV / SYQ)
Sun 10:18:44 AM 10.0031 -84.1448 140° Southeast 215 247 7,400 3,600 Climbing FlightAware ADS-B (MRPV / SYQ)
Sun 10:18:49 AM 9.9982 -84.1419 156° South 224 258 7,700 3,600 Climbing FlightAware ADS-B (MRPV / SYQ)
Sun 10:18:54 AM 9.9931 -84.1403 168° South 233 268 8,000 3,000 Climbing FlightAware ADS-B (MRPV / SYQ)
Sun 10:18:59 AM 9.9883 -84.1399 181° South 242 278 8,200 3,000 Climbing FlightAware ADS-B (MRPV / SYQ)
Sun 10:19:04 AM 9.9824 -84.1406 193° South 249 287 8,500 3,600 Climbing FlightAware ADS-B (MRPV / SYQ)
Sun 10:19:09 AM 9.9769 -84.1425 204° Southwest 255 293 8,800 3,600 Climbing FlightAware ADS-B (MRPV / SYQ)
Sun 10:19:14 AM 9.9714 -84.1459 217° Southwest 261 300 9,100 3,600 Climbing FlightAware ADS-B (MRPV / SYQ)
Sun 10:19:19 AM 9.9672 -84.1497 227° Southwest 262 302 9,400 4,200 Climbing FlightAware ADS-B (MRPV / SYQ)
Sun 10:19:24 AM 9.9631 -84.1554 239° Southwest 261 300 9,800 3,750 Climbing FlightAware ADS-B (MRPV / SYQ)
Sun 10:19:35 AM 9.9593 -84.1668 263° West 256 295 10,400 3,600 Climbing FlightAware ADS-B (MRPV / SYQ)
Sun 10:19:44 AM 9.9600 -84.1775 284° West 250 288 11,000 3,667 Climbing FlightAware ADS-B (MRPV / SYQ)
Sun 10:19:53 AM 9.9629 -84.1861 293° West 246 283 11,500 1,500 Climbing FlightAware ADS-B (MRPV / SYQ)
Sun 10:20:24 AM 9.9800 -84.2219 310° West 290 334 12,000 732 Climbing FlightAware ADS-B (MRPV / SYQ)
Sun 10:20:34 AM 9.9899 -84.2306 329° Northwest 311 358 12,000 600 Level FlightAware ADS-B (MRPV / SYQ)
Sun 10:20:44 AM 10.0039 -84.2359 349° North 323 372 12,200 1,200 Climbing FlightAware ADS-B (MRPV / SYQ)
Sun 10:20:54 AM 10.0197 -84.2361 North 333 383 12,400 1,500 Climbing FlightAware ADS-B (MRPV / SYQ)
Sun 10:21:04 AM 10.0349 -84.2318 18° North 344 396 12,700 1,950 Climbing FlightAware ADS-B (MRPV / SYQ)
Sun 10:21:34 AM 10.0808 -84.2152 18° North 369 425 13,700 2,339 Climbing FlightAware ADS-B (MRPV / SYQ)
Sun 10:22:03 AM 10.1291 -84.2025 12° North 374 430 15,000 2,800 Climbing FlightAware ADS-B (MRPV / SYQ)
Sun 10:22:34 AM 10.1812 -84.1905 12° North 375 432 16,500 2,459 Climbing FlightAware ADS-B (MRPV / SYQ)
Sun 10:23:04 AM 10.2341 -84.1781 13° North 394 453 17,500 2,200 Climbing FlightAware ADS-B (MRPV / SYQ)
Sun 10:23:34 AM 10.2876 -84.1654 13° North 401 461 18,700 2,400 Climbing FlightAware ADS-B (MRPV / SYQ)
Sun 10:24:04 AM 10.3428 -84.1520 13° North 411 473 19,900 2,300 Climbing FlightAware ADS-B (MRPV / SYQ)
Sun 10:24:34 AM 10.3990 -84.1391 12° North 420 483 21,000 2,200 Climbing FlightAware ADS-B (MRPV / SYQ)
Sun 10:25:04 AM 10.4547 -84.1265 12° North 425 489 22,100 2,419 Climbing FlightAware ADS-B (MRPV / SYQ)
Sun 10:25:36 AM 10.5170 -84.1120 13° North 426 490 23,500 2,710 Climbing FlightAware ADS-B (MRPV / SYQ)
Sun 10:26:06 AM 10.5763 -84.0982 13° North 420 483 24,900 2,339 Climbing FlightAware ADS-B (MRPV / SYQ)
Sun 10:26:35 AM 10.6319 -84.0854 13° North 433 498 25,800 1,500 Climbing FlightAware ADS-B (MRPV / SYQ)
Sun 10:27:06 AM 10.6941 -84.0711 13° North 447 514 26,400 1,500 Climbing FlightAware ADS-B (MRPV / SYQ)
Sun 10:27:31 AM 10.7395 -84.0604 13° North 451 519 27,200 162 Climbing FlightAware ADS-B (MRPV / SYQ)
Sun 10:30:00 AM 11.0321 -84.0009 11° North  Level FlightAware Approximate
Sun 10:31:00 AM 11.1500 -83.9768 11° North  Level FlightAware Approximate
Sun 10:32:00 AM 11.2678 -83.9528 11° North  Level FlightAware Approximate
Sun 10:33:00 AM 11.3856 -83.9287 11° North  Level FlightAware Approximate
Sun 10:34:00 AM 11.5035 -83.9047 11° North  Level FlightAware Approximate
Sun 10:35:00 AM 11.6213 -83.8806 11° North  Level FlightAware Approximate
Sun 10:36:00 AM 11.7391 -83.8565 11° North  Level FlightAware Approximate
Sun 10:37:00 AM 11.8569 -83.8323 11° North  Level FlightAware Approximate
Sun 10:38:00 AM 11.9747 -83.8086 11° North  Level FlightAware Approximate
Sun 10:39:00 AM 12.0928 -83.7855 11° North  Level FlightAware Approximate
Sun 10:40:00 AM 12.2108 -83.7625 11° North  Level FlightAware Approximate
Sun 10:41:00 AM 12.3288 -83.7394 11° North  Level FlightAware Approximate
Sun 10:42:00 AM 12.4469 -83.7163 11° North  Level FlightAware Approximate
Sun 10:43:00 AM 12.5649 -83.6932 11° North  Level FlightAware Approximate
Sun 10:44:00 AM 12.6829 -83.6700 11° North  Level FlightAware Approximate
Sun 10:45:00 AM 12.8007 -83.6455 12° North  Level FlightAware Approximate
Sun 10:46:00 AM 12.9184 -83.6208 12° North  Level FlightAware Approximate
Sun 10:47:00 AM 13.0362 -83.5961 12° North  Level FlightAware Approximate
Sun 10:48:00 AM 13.1539 -83.5713 12° North  Level FlightAware Approximate
Sun 10:49:00 AM 13.2716 -83.5465 12° North  Level FlightAware Approximate
Sun 10:50:00 AM 13.3893 -83.5217 12° North  Level FlightAware Approximate
Sun 10:51:00 AM 13.5070 -83.4969 12° North  Level FlightAware Approximate
Sun 10:52:00 AM 13.6248 -83.4720 12° North  Level FlightAware Approximate
Sun 10:53:00 AM 13.7425 -83.4473 11° North  Level FlightAware Approximate
Sun 10:54:00 AM 13.8603 -83.4227 11° North  Level FlightAware Approximate
Sun 10:55:00 AM 13.9780 -83.3980 11° North  Level FlightAware Approximate
Sun 10:56:00 AM 14.0958 -83.3733 11° North  Level FlightAware Approximate
Sun 10:57:00 AM 14.2135 -83.3486 12° North  Level FlightAware Approximate
Sun 10:58:00 AM 14.3313 -83.3239 12° North  Level FlightAware Approximate
Sun 10:59:00 AM 14.4490 -83.2991 12° North  Level FlightAware Approximate
Sun 11:00:00 AM 14.5668 -83.2743 12° North  Level FlightAware Approximate
Sun 11:01:00 AM 14.6845 -83.2495 12° North  Level FlightAware Approximate
Sun 11:02:00 AM 14.8023 -83.2246 12° North  Level FlightAware Approximate
Sun 11:03:00 AM 14.9200 -83.1997 12° North  Level FlightAware Approximate
Sun 11:04:00 AM 15.0378 -83.1748 12° North  Level FlightAware Approximate
Sun 11:05:00 AM 15.1555 -83.1499 12° North  Level FlightAware Approximate
Sun 11:06:00 AM 15.2732 -83.1249 12° North  Level FlightAware Approximate
Sun 11:07:00 AM 15.3910 -83.1000 12° North  Level FlightAware Approximate
Sun 11:08:00 AM 15.5087 -83.0750 12° North  Level FlightAware Approximate
Sun 11:09:00 AM 15.6264 -83.0499 12° North  Level FlightAware Approximate
Sun 11:10:00 AM 15.7441 -83.0248 12° North  Level FlightAware Approximate
Sun 11:11:00 AM 15.8618 -82.9997 12° North  Level FlightAware Approximate
Sun 11:12:00 AM 15.9796 -82.9746 12° North  Level FlightAware Approximate
Sun 11:13:00 AM 16.0973 -82.9499 11° North  Level FlightAware Approximate
Sun 11:14:00 AM 16.2152 -82.9254 11° North  Level FlightAware Approximate
Sun 11:15:00 AM 16.3330 -82.9008 11° North  Level FlightAware Approximate
Sun 11:16:00 AM 16.4509 -82.8762 11° North  Level FlightAware Approximate
Sun 11:17:00 AM 16.5687 -82.8516 11° North  Level FlightAware Approximate
Sun 11:18:00 AM 16.6865 -82.8270 11° North  Level FlightAware Approximate
Sun 11:19:00 AM 16.8043 -82.8023 11° North  Level FlightAware Approximate
Sun 11:20:00 AM 16.9222 -82.7776 11° North  Level FlightAware Approximate
Sun 11:21:00 AM 17.0400 -82.7529 11° North  Level FlightAware Approximate
Sun 11:22:00 AM 17.1578 -82.7281 11° North  Level FlightAware Approximate
Sun 11:23:00 AM 17.2756 -82.7033 11° North  Level FlightAware Approximate
Sun 11:24:00 AM 17.3934 -82.6785 11° North  Level FlightAware Approximate
Sun 11:25:00 AM 17.5112 -82.6536 11° North  Level FlightAware Approximate
Sun 11:26:00 AM 17.6290 -82.6287 11° North  Level FlightAware Approximate
Sun 11:27:00 AM 17.7468 -82.6038 11° North  Level FlightAware Approximate
Sun 11:28:00 AM 17.8646 -82.5789 11° North  Level FlightAware Approximate
Sun 11:29:00 AM 17.9824 -82.5539 11° North  Level FlightAware Approximate
Sun 11:30:00 AM 18.1002 -82.5288 11° North  Level FlightAware Approximate
Sun 11:31:00 AM 18.2180 -82.5038 11° North  Level FlightAware Approximate
Sun 11:32:00 AM 18.3358 -82.4787 11° North  Level FlightAware Approximate
Sun 11:33:00 AM 18.4536 -82.4536 11° North  Level FlightAware Approximate
Sun 11:34:00 AM 18.5713 -82.4284 11° North  Level FlightAware Approximate
Sun 11:35:00 AM 18.6891 -82.4032 11° North  Level FlightAware Approximate
Sun 11:36:00 AM 18.8069 -82.3780 11° North  Level FlightAware Approximate
Sun 11:37:00 AM 18.9247 -82.3527 11° North  Level FlightAware Approximate
Sun 11:38:00 AM 19.0424 -82.3274 11° North  Level FlightAware Approximate
Sun 11:39:00 AM 19.1602 -82.3021 11° North  Level FlightAware Approximate
Sun 11:40:00 AM 19.2779 -82.2767 11° North  Level FlightAware Approximate
Sun 11:41:00 AM 19.3957 -82.2513 12° North  Level FlightAware Approximate
Sun 11:42:00 AM 19.5134 -82.2259 12° North  Level FlightAware Approximate
Sun 11:43:00 AM 19.6312 -82.2004 12° North  Level FlightAware Approximate
Sun 11:44:00 AM 19.7489 -82.1748 12° North  Level FlightAware Approximate
Sun 11:45:00 AM 19.8667 -82.1493 12° North  Level FlightAware Approximate
Sun 11:46:00 AM 19.9844 -82.1237 12° North  Level FlightAware Approximate
Sun 11:47:00 AM 20.1021 -82.0979 12° North  Level FlightAware Approximate
Sun 11:48:00 AM 20.2198 -82.0720 12° North  Level FlightAware Approximate
Sun 11:49:00 AM 20.3375 -82.0460 12° North  Level FlightAware Approximate
Sun 11:50:00 AM 20.4551 -82.0201 12° North  Level FlightAware Approximate
Sun 11:51:00 AM 20.5728 -81.9940 12° North  Level FlightAware Approximate
Sun 11:52:00 AM 20.6905 -81.9680 12° North  Level FlightAware Approximate
Sun 11:53:00 AM 20.8081 -81.9418 12° North  Level FlightAware Approximate
Sun 11:54:00 AM 20.9258 -81.9157 12° North  Level FlightAware Approximate
Sun 11:55:00 AM 21.0434 -81.8895 12° North  Level FlightAware Approximate
Sun 11:56:00 AM 21.1611 -81.8633 12° North  Level FlightAware Approximate
Sun 11:57:00 AM 21.2787 -81.8370 12° North  Level FlightAware Approximate
Sun 11:58:00 AM 21.3964 -81.8107 12° North  Level FlightAware Approximate
Sun 11:59:00 AM 21.5140 -81.7843 12° North  Level FlightAware Approximate
Sun 12:00:00 PM 21.6317 -81.7579 12° North  Level FlightAware Approximate
Sun 12:01:00 PM 21.7493 -81.7315 12° North  Level FlightAware Approximate
Sun 12:02:00 PM 21.8666 -81.7048 12° North  Level FlightAware Approximate
Sun 12:03:00 PM 21.9839 -81.6780 12° North  Level FlightAware Approximate
Sun 12:04:00 PM 22.1012 -81.6513 12° North  Level FlightAware Approximate
Sun 12:05:00 PM 22.2184 -81.6244 12° North  Level FlightAware Approximate
Sun 12:06:00 PM 22.3357 -81.5975 12° North  Level FlightAware Approximate
Sun 12:07:00 PM 22.4530 -81.5706 12° North  Level FlightAware Approximate
Sun 12:08:00 PM 22.5702 -81.5436 12° North  Level FlightAware Approximate
Sun 12:09:00 PM 22.6875 -81.5166 12° North  Level FlightAware Approximate
Sun 12:09:30 PM 23.8128 -81.2619 12° North 477 549 43,000  Level Miami Center
Sun 12:10:00 PM 22.8047 -81.4895 12° North  Level FlightAware Approximate
Sun 12:10:30 PM 23.9456 -81.2281 13° North 484 557 43,000  Level Miami Center
Sun 12:11:00 PM 22.9220 -81.4624 12° North  Level FlightAware Approximate
Sun 12:11:30 PM 24.0772 -81.2211 North 484 557 43,000  Level Miami Center
Sun 12:12:00 PM 23.0392 -81.4353 12° North  Level FlightAware Approximate
Sun 12:12:30 PM 24.1881 -81.2819 333° Northwest 441 507 43,000  Level Miami Center
Sun 12:13:30 PM 24.2967 -81.3519 330° Northwest 447 514 41,600 -2,150 Descending Miami Center
Sun 12:14:30 PM 24.4053 -81.4242 329° Northwest 442 509 38,700 -2,800 Descending Miami Center
Sun 12:15:30 PM 24.5139 -81.4919 330° Northwest 447 514 36,000 -1,350 Descending Miami Center
Sun 12:16:30 PM 24.6311 -81.5514 335° Northwest 453 521 36,000  Level Miami Center
Sun 12:17:30 PM 24.7764 -81.5750 352° North 459 528 36,000 -800 Level Miami Center
Sun 12:18:30 PM 24.8883 -81.6044 347° North 466 536 34,400 -2,550 Descending Miami Center
Sun 12:19:30 PM 25.0128 -81.6300 349° North 466 536 30,900 -3,700 Descending Miami Center
Sun 12:20:30 PM 25.1394 -81.6556 350° North 466 536 27,000 -3,450 Descending Miami Center
Sun 12:21:30 PM 25.2575 -81.6808 349° North 455 524 24,000 -2,600 Descending Miami Center
Sun 12:22:30 PM 25.3697 -81.7014 351° North 429 494 21,800 -9,000 Descending Miami Center
Sun 12:23:30 PM 25.4900 -81.7269 349° North 411 473 6,000 -3,800 Descending Miami Center
Sun 12:24:30 PM 25.5936 -81.7494 349° North 389 448 14,200 2,400 Climbing Miami Center
Sun 12:25:30 PM 25.6806 -81.7669 350° North 366 421 10,800 -2,600 Descending Miami Center
Sun 12:26:30 PM 25.7719 -81.7867 349° North 318 366 9,000 -2,550 Descending Miami Center
Sun 12:27:30 PM 25.8486 -81.8036 349° North 283 326 5,700 -2,950 Descending Miami Center
Sun 12:28:30 PM 25.9208 -81.8275 343° North 268 308 3,100 -1,400 Descending Miami Center
Sun 12:29:30 PM 25.9806 -81.8508 341° North 241 277 2,900 -350 Descending Miami Center
Sun 12:30:30 PM 26.0386 -81.8600 352° North 217 250 2,400 -550 Descending Miami Center
Sun 12:31:30 PM 26.0786 -81.8547 North 165 190 1,800 -650 Descending Miami Center
Sun 12:32:30 PM 26.1067 -81.8258 43° Northeast 133 153 1,100 -650 Descending Miami Center
Sun 12:33:30 PM 26.1328 -81.7992 43° Northeast 127 146 500 -450 Descending Miami Center
Sun 12:34:30 PM 26.1564 -81.7725 45° Northeast 127 146 200 -300 Descending Miami Center
Sun 12:36:00 PM 26.1500 -81.7667 326° Northwest  Level FlightAware Approximate

Login

Don't have an account? Register now (free) for customized features, flight alerts, and more!